sensor_id;sensor_type;location;lat;lon;timestamp;P1;durP1;ratioP1;P2;durP2;ratioP2
74920;SDS011;63483;47.384;8.860;2023-07-09T00:01:49;6.63;;;2.77;;
74920;SDS011;63483;47.384;8.860;2023-07-09T00:04:14;6.72;;;2.97;;
74920;SDS011;63483;47.384;8.860;2023-07-09T00:06:40;5.30;;;2.70;;
74920;SDS011;63483;47.384;8.860;2023-07-09T00:09:11;7.60;;;3.37;;
74920;SDS011;63483;47.384;8.860;2023-07-09T00:11:39;4.57;;;2.70;;
74920;SDS011;63483;47.384;8.860;2023-07-09T00:14:05;6.35;;;3.58;;
74920;SDS011;63483;47.384;8.860;2023-07-09T00:16:31;5.50;;;2.60;;
74920;SDS011;63483;47.384;8.860;2023-07-09T00:18:56;4.50;;;3.03;;
74920;SDS011;63483;47.384;8.860;2023-07-09T00:21:22;5.43;;;3.23;;
74920;SDS011;63483;47.384;8.860;2023-07-09T00:23:48;6.13;;;2.92;;
74920;SDS011;63483;47.384;8.860;2023-07-09T00:26:16;5.80;;;2.40;;
74920;SDS011;63483;47.384;8.860;2023-07-09T00:28:43;4.75;;;2.90;;
74920;SDS011;63483;47.384;8.860;2023-07-09T00:31:12;6.53;;;3.08;;
74920;SDS011;63483;47.384;8.860;2023-07-09T00:33:40;4.45;;;2.22;;
74920;SDS011;63483;47.384;8.860;2023-07-09T00:36:16;5.72;;;2.70;;
74920;SDS011;63483;47.384;8.860;2023-07-09T00:38:45;5.17;;;2.90;;
74920;SDS011;63483;47.384;8.860;2023-07-09T00:41:16;5.28;;;2.80;;
74920;SDS011;63483;47.384;8.860;2023-07-09T00:43:45;6.03;;;2.50;;
74920;SDS011;63483;47.384;8.860;2023-07-09T00:46:16;4.38;;;2.80;;
74920;SDS011;63483;47.384;8.860;2023-07-09T00:48:43;5.10;;;2.70;;
74920;SDS011;63483;47.384;8.860;2023-07-09T00:51:17;5.20;;;2.63;;
74920;SDS011;63483;47.384;8.860;2023-07-09T00:53:45;3.78;;;2.30;;
74920;SDS011;63483;47.384;8.860;2023-07-09T00:56:14;5.70;;;2.92;;
74920;SDS011;63483;47.384;8.860;2023-07-09T00:58:45;4.60;;;2.95;;
74920;SDS011;63483;47.384;8.860;2023-07-09T01:01:13;7.00;;;2.90;;
74920;SDS011;63483;47.384;8.860;2023-07-09T01:03:44;5.07;;;2.57;;
74920;SDS011;63483;47.384;8.860;2023-07-09T01:06:13;5.60;;;3.15;;
74920;SDS011;63483;47.384;8.860;2023-07-09T01:08:44;5.78;;;2.88;;
74920;SDS011;63483;47.384;8.860;2023-07-09T01:11:16;6.50;;;2.88;;
74920;SDS011;63483;47.384;8.860;2023-07-09T01:13:46;5.20;;;2.77;;
74920;SDS011;63483;47.384;8.860;2023-07-09T01:16:13;4.22;;;2.30;;
74920;SDS011;63483;47.384;8.860;2023-07-09T01:18:40;5.00;;;2.75;;
74920;SDS011;63483;47.384;8.860;2023-07-09T01:21:08;5.80;;;2.63;;
74920;SDS011;63483;47.384;8.860;2023-07-09T01:23:40;6.70;;;3.00;;
74920;SDS011;63483;47.384;8.860;2023-07-09T01:26:13;4.40;;;2.60;;
74920;SDS011;63483;47.384;8.860;2023-07-09T01:28:40;5.28;;;2.40;;
74920;SDS011;63483;47.384;8.860;2023-07-09T01:31:12;4.40;;;2.57;;
74920;SDS011;63483;47.384;8.860;2023-07-09T01:33:40;5.80;;;2.80;;
74920;SDS011;63483;47.384;8.860;2023-07-09T01:36:07;4.20;;;2.40;;
74920;SDS011;63483;47.384;8.860;2023-07-09T01:38:33;5.53;;;2.50;;
74920;SDS011;63483;47.384;8.860;2023-07-09T01:40:59;5.37;;;2.47;;
74920;SDS011;63483;47.384;8.860;2023-07-09T01:43:25;5.85;;;2.10;;
74920;SDS011;63483;47.384;8.860;2023-07-09T01:45:52;3.20;;;2.08;;
74920;SDS011;63483;47.384;8.860;2023-07-09T01:48:18;4.55;;;2.13;;
74920;SDS011;63483;47.384;8.860;2023-07-09T01:50:46;4.60;;;2.57;;
74920;SDS011;63483;47.384;8.860;2023-07-09T01:53:14;5.47;;;2.50;;
74920;SDS011;63483;47.384;8.860;2023-07-09T01:55:41;5.47;;;2.47;;
74920;SDS011;63483;47.384;8.860;2023-07-09T01:58:07;4.55;;;2.42;;
74920;SDS011;63483;47.384;8.860;2023-07-09T02:00:33;5.83;;;2.83;;
74920;SDS011;63483;47.384;8.860;2023-07-09T02:03:02;5.55;;;3.22;;
74920;SDS011;63483;47.384;8.860;2023-07-09T02:05:30;4.20;;;2.83;;
74920;SDS011;63483;47.384;8.860;2023-07-09T02:07:57;5.57;;;2.53;;
74920;SDS011;63483;47.384;8.860;2023-07-09T02:10:22;4.27;;;2.60;;
74920;SDS011;63483;47.384;8.860;2023-07-09T02:12:48;4.78;;;2.70;;
74920;SDS011;63483;47.384;8.860;2023-07-09T02:15:14;4.67;;;2.47;;
74920;SDS011;63483;47.384;8.860;2023-07-09T02:17:40;6.50;;;2.72;;
74920;SDS011;63483;47.384;8.860;2023-07-09T02:20:06;5.60;;;2.83;;
74920;SDS011;63483;47.384;8.860;2023-07-09T02:22:32;4.20;;;2.53;;
74920;SDS011;63483;47.384;8.860;2023-07-09T02:24:58;6.18;;;2.80;;
74920;SDS011;63483;47.384;8.860;2023-07-09T02:27:23;4.67;;;2.80;;
74920;SDS011;63483;47.384;8.860;2023-07-09T02:29:49;4.43;;;2.50;;
74920;SDS011;63483;47.384;8.860;2023-07-09T02:32:24;4.13;;;2.43;;
74920;SDS011;63483;47.384;8.860;2023-07-09T02:34:52;5.43;;;2.63;;
74920;SDS011;63483;47.384;8.860;2023-07-09T02:37:19;4.15;;;2.30;;
74920;SDS011;63483;47.384;8.860;2023-07-09T02:39:46;5.07;;;2.78;;
74920;SDS011;63483;47.384;8.860;2023-07-09T02:42:13;5.63;;;2.22;;
74920;SDS011;63483;47.384;8.860;2023-07-09T02:44:40;4.30;;;2.23;;
74920;SDS011;63483;47.384;8.860;2023-07-09T02:47:06;5.93;;;2.85;;
74920;SDS011;63483;47.384;8.860;2023-07-09T02:49:32;5.68;;;2.38;;
74920;SDS011;63483;47.384;8.860;2023-07-09T02:51:57;4.03;;;2.50;;
74920;SDS011;63483;47.384;8.860;2023-07-09T02:54:22;5.57;;;2.83;;
74920;SDS011;63483;47.384;8.860;2023-07-09T02:56:48;5.10;;;1.97;;
74920;SDS011;63483;47.384;8.860;2023-07-09T02:59:13;5.03;;;2.47;;
74920;SDS011;63483;47.384;8.860;2023-07-09T03:01:39;4.37;;;2.50;;
74920;SDS011;63483;47.384;8.860;2023-07-09T03:04:04;5.00;;;2.63;;
74920;SDS011;63483;47.384;8.860;2023-07-09T03:06:30;5.27;;;2.77;;
74920;SDS011;63483;47.384;8.860;2023-07-09T03:08:59;6.32;;;3.00;;
74920;SDS011;63483;47.384;8.860;2023-07-09T03:11:27;5.30;;;2.30;;
74920;SDS011;63483;47.384;8.860;2023-07-09T03:13:54;4.72;;;2.92;;
74920;SDS011;63483;47.384;8.860;2023-07-09T03:16:19;6.97;;;2.53;;
74920;SDS011;63483;47.384;8.860;2023-07-09T03:18:45;7.63;;;2.93;;
74920;SDS011;63483;47.384;8.860;2023-07-09T03:21:10;4.87;;;3.03;;
74920;SDS011;63483;47.384;8.860;2023-07-09T03:23:36;5.07;;;2.72;;
74920;SDS011;63483;47.384;8.860;2023-07-09T03:26:01;6.63;;;2.77;;
74920;SDS011;63483;47.384;8.860;2023-07-09T03:28:26;5.00;;;2.73;;
74920;SDS011;63483;47.384;8.860;2023-07-09T03:30:53;6.13;;;2.90;;
74920;SDS011;63483;47.384;8.860;2023-07-09T03:33:20;5.38;;;2.78;;
74920;SDS011;63483;47.384;8.860;2023-07-09T03:35:45;6.50;;;2.73;;
74920;SDS011;63483;47.384;8.860;2023-07-09T03:38:11;7.03;;;2.60;;
74920;SDS011;63483;47.384;8.860;2023-07-09T03:40:37;6.80;;;2.70;;
74920;SDS011;63483;47.384;8.860;2023-07-09T03:43:03;6.35;;;2.80;;
74920;SDS011;63483;47.384;8.860;2023-07-09T03:45:29;5.65;;;2.80;;
74920;SDS011;63483;47.384;8.860;2023-07-09T03:47:55;5.88;;;3.05;;
74920;SDS011;63483;47.384;8.860;2023-07-09T03:50:21;6.13;;;2.80;;
74920;SDS011;63483;47.384;8.860;2023-07-09T03:52:47;6.18;;;2.72;;
74920;SDS011;63483;47.384;8.860;2023-07-09T03:55:12;5.83;;;2.90;;
74920;SDS011;63483;47.384;8.860;2023-07-09T03:57:39;8.15;;;2.72;;
74920;SDS011;63483;47.384;8.860;2023-07-09T04:00:04;5.97;;;2.90;;
74920;SDS011;63483;47.384;8.860;2023-07-09T04:02:31;6.03;;;2.72;;
74920;SDS011;63483;47.384;8.860;2023-07-09T04:04:56;5.65;;;2.97;;
74920;SDS011;63483;47.384;8.860;2023-07-09T04:07:22;5.70;;;2.80;;
74920;SDS011;63483;47.384;8.860;2023-07-09T04:09:48;6.13;;;2.75;;
74920;SDS011;63483;47.384;8.860;2023-07-09T04:12:13;4.73;;;2.43;;
74920;SDS011;63483;47.384;8.860;2023-07-09T04:14:38;4.20;;;2.67;;
74920;SDS011;63483;47.384;8.860;2023-07-09T04:17:05;5.93;;;3.22;;
74920;SDS011;63483;47.384;8.860;2023-07-09T04:19:31;4.27;;;2.93;;
74920;SDS011;63483;47.384;8.860;2023-07-09T04:21:56;3.43;;;2.37;;
74920;SDS011;63483;47.384;8.860;2023-07-09T04:24:21;7.17;;;3.00;;
74920;SDS011;63483;47.384;8.860;2023-07-09T04:26:47;5.03;;;2.70;;
74920;SDS011;63483;47.384;8.860;2023-07-09T04:29:12;4.57;;;3.20;;
74920;SDS011;63483;47.384;8.860;2023-07-09T04:31:39;5.38;;;2.95;;
74920;SDS011;63483;47.384;8.860;2023-07-09T04:34:05;4.70;;;2.92;;
74920;SDS011;63483;47.384;8.860;2023-07-09T04:36:31;4.53;;;3.00;;
74920;SDS011;63483;47.384;8.860;2023-07-09T04:38:57;6.23;;;3.07;;
74920;SDS011;63483;47.384;8.860;2023-07-09T04:41:23;5.55;;;2.83;;
74920;SDS011;63483;47.384;8.860;2023-07-09T04:43:48;5.93;;;3.30;;
74920;SDS011;63483;47.384;8.860;2023-07-09T04:46:14;5.15;;;2.90;;
74920;SDS011;63483;47.384;8.860;2023-07-09T04:48:40;4.37;;;2.80;;
74920;SDS011;63483;47.384;8.860;2023-07-09T04:51:05;4.80;;;2.93;;
74920;SDS011;63483;47.384;8.860;2023-07-09T04:53:30;5.73;;;3.20;;
74920;SDS011;63483;47.384;8.860;2023-07-09T04:55:56;6.03;;;2.90;;
74920;SDS011;63483;47.384;8.860;2023-07-09T04:58:21;5.43;;;2.60;;
74920;SDS011;63483;47.384;8.860;2023-07-09T05:00:46;4.50;;;2.90;;
74920;SDS011;63483;47.384;8.860;2023-07-09T05:03:12;4.30;;;2.73;;
74920;SDS011;63483;47.384;8.860;2023-07-09T05:05:42;6.40;;;3.00;;
74920;SDS011;63483;47.384;8.860;2023-07-09T05:08:11;4.88;;;2.60;;
74920;SDS011;63483;47.384;8.860;2023-07-09T05:10:41;4.93;;;3.22;;
74920;SDS011;63483;47.384;8.860;2023-07-09T05:13:14;6.70;;;3.17;;
74920;SDS011;63483;47.384;8.860;2023-07-09T05:15:41;6.60;;;3.10;;
74920;SDS011;63483;47.384;8.860;2023-07-09T05:18:07;5.53;;;2.70;;
74920;SDS011;63483;47.384;8.860;2023-07-09T05:20:33;6.68;;;3.00;;
74920;SDS011;63483;47.384;8.860;2023-07-09T05:22:59;5.10;;;2.43;;
74920;SDS011;63483;47.384;8.860;2023-07-09T05:25:24;5.80;;;2.90;;
74920;SDS011;63483;47.384;8.860;2023-07-09T05:27:50;4.80;;;2.63;;
74920;SDS011;63483;47.384;8.860;2023-07-09T05:30:16;7.88;;;2.80;;
74920;SDS011;63483;47.384;8.860;2023-07-09T05:32:42;5.13;;;3.63;;
74920;SDS011;63483;47.384;8.860;2023-07-09T05:35:07;8.10;;;3.60;;
74920;SDS011;63483;47.384;8.860;2023-07-09T05:37:33;5.88;;;2.85;;
74920;SDS011;63483;47.384;8.860;2023-07-09T05:39:58;7.73;;;2.83;;
74920;SDS011;63483;47.384;8.860;2023-07-09T05:42:24;5.63;;;3.13;;
74920;SDS011;63483;47.384;8.860;2023-07-09T05:44:49;6.27;;;3.13;;
74920;SDS011;63483;47.384;8.860;2023-07-09T05:47:14;6.70;;;3.07;;
74920;SDS011;63483;47.384;8.860;2023-07-09T05:49:39;4.20;;;2.63;;
74920;SDS011;63483;47.384;8.860;2023-07-09T05:52:05;5.75;;;3.28;;
74920;SDS011;63483;47.384;8.860;2023-07-09T05:54:31;5.87;;;3.07;;
74920;SDS011;63483;47.384;8.860;2023-07-09T05:56:56;5.57;;;2.65;;
74920;SDS011;63483;47.384;8.860;2023-07-09T05:59:22;5.13;;;2.50;;
74920;SDS011;63483;47.384;8.860;2023-07-09T06:01:47;4.70;;;2.90;;
74920;SDS011;63483;47.384;8.860;2023-07-09T06:04:12;5.23;;;2.83;;
74920;SDS011;63483;47.384;8.860;2023-07-09T06:06:39;5.43;;;2.60;;
74920;SDS011;63483;47.384;8.860;2023-07-09T06:09:06;4.40;;;2.70;;
74920;SDS011;63483;47.384;8.860;2023-07-09T06:11:31;5.57;;;2.60;;
74920;SDS011;63483;47.384;8.860;2023-07-09T06:13:57;4.73;;;2.80;;
74920;SDS011;63483;47.384;8.860;2023-07-09T06:16:23;5.85;;;3.25;;
74920;SDS011;63483;47.384;8.860;2023-07-09T06:18:49;4.80;;;2.87;;
74920;SDS011;63483;47.384;8.860;2023-07-09T06:21:14;5.73;;;2.33;;
74920;SDS011;63483;47.384;8.860;2023-07-09T06:23:39;5.03;;;3.10;;
74920;SDS011;63483;47.384;8.860;2023-07-09T06:26:05;4.83;;;2.83;;
74920;SDS011;63483;47.384;8.860;2023-07-09T06:28:30;6.87;;;4.00;;
74920;SDS011;63483;47.384;8.860;2023-07-09T06:30:56;5.27;;;2.97;;
74920;SDS011;63483;47.384;8.860;2023-07-09T06:33:22;4.72;;;3.08;;
74920;SDS011;63483;47.384;8.860;2023-07-09T06:35:53;5.38;;;3.17;;
74920;SDS011;63483;47.384;8.860;2023-07-09T06:38:20;6.07;;;3.40;;
74920;SDS011;63483;47.384;8.860;2023-07-09T06:40:46;5.10;;;3.77;;
74920;SDS011;63483;47.384;8.860;2023-07-09T06:43:11;6.40;;;3.30;;
74920;SDS011;63483;47.384;8.860;2023-07-09T06:45:37;9.43;;;3.58;;
74920;SDS011;63483;47.384;8.860;2023-07-09T06:48:03;7.60;;;2.87;;
74920;SDS011;63483;47.384;8.860;2023-07-09T06:50:29;4.78;;;3.00;;
74920;SDS011;63483;47.384;8.860;2023-07-09T06:52:58;7.35;;;3.30;;
74920;SDS011;63483;47.384;8.860;2023-07-09T06:55:23;5.00;;;2.93;;
74920;SDS011;63483;47.384;8.860;2023-07-09T06:57:48;5.57;;;3.10;;
74920;SDS011;63483;47.384;8.860;2023-07-09T07:00:14;5.00;;;3.43;;
74920;SDS011;63483;47.384;8.860;2023-07-09T07:02:40;4.90;;;3.25;;
74920;SDS011;63483;47.384;8.860;2023-07-09T07:05:05;5.87;;;3.20;;
74920;SDS011;63483;47.384;8.860;2023-07-09T07:07:31;5.17;;;2.80;;
74920;SDS011;63483;47.384;8.860;2023-07-09T07:09:56;6.13;;;3.20;;
74920;SDS011;63483;47.384;8.860;2023-07-09T07:12:23;5.40;;;2.97;;
74920;SDS011;63483;47.384;8.860;2023-07-09T07:14:53;5.18;;;2.97;;
74920;SDS011;63483;47.384;8.860;2023-07-09T07:17:19;7.07;;;3.20;;
74920;SDS011;63483;47.384;8.860;2023-07-09T07:19:45;6.63;;;3.28;;
74920;SDS011;63483;47.384;8.860;2023-07-09T07:22:11;4.50;;;2.83;;
74920;SDS011;63483;47.384;8.860;2023-07-09T07:24:36;4.93;;;3.20;;
74920;SDS011;63483;47.384;8.860;2023-07-09T07:27:01;5.97;;;3.40;;
74920;SDS011;63483;47.384;8.860;2023-07-09T07:29:27;5.70;;;3.20;;
74920;SDS011;63483;47.384;8.860;2023-07-09T07:31:53;6.87;;;3.20;;
74920;SDS011;63483;47.384;8.860;2023-07-09T07:34:19;7.32;;;3.65;;
74920;SDS011;63483;47.384;8.860;2023-07-09T07:36:44;5.20;;;3.17;;
74920;SDS011;63483;47.384;8.860;2023-07-09T07:39:09;4.90;;;3.40;;
74920;SDS011;63483;47.384;8.860;2023-07-09T07:41:35;5.22;;;3.42;;
74920;SDS011;63483;47.384;8.860;2023-07-09T07:44:00;6.10;;;3.27;;
74920;SDS011;63483;47.384;8.860;2023-07-09T07:46:26;8.90;;;3.50;;
74920;SDS011;63483;47.384;8.860;2023-07-09T07:48:51;5.13;;;3.57;;
74920;SDS011;63483;47.384;8.860;2023-07-09T07:51:16;5.83;;;2.90;;
74920;SDS011;63483;47.384;8.860;2023-07-09T07:53:42;5.47;;;3.20;;
74920;SDS011;63483;47.384;8.860;2023-07-09T07:56:07;6.30;;;3.70;;
74920;SDS011;63483;47.384;8.860;2023-07-09T07:58:33;6.80;;;3.20;;
74920;SDS011;63483;47.384;8.860;2023-07-09T08:00:59;5.73;;;4.30;;
74920;SDS011;63483;47.384;8.860;2023-07-09T08:03:24;6.03;;;3.60;;
74920;SDS011;63483;47.384;8.860;2023-07-09T08:05:50;6.07;;;3.50;;
74920;SDS011;63483;47.384;8.860;2023-07-09T08:08:16;8.25;;;3.78;;
74920;SDS011;63483;47.384;8.860;2023-07-09T08:10:42;6.23;;;3.87;;
74920;SDS011;63483;47.384;8.860;2023-07-09T08:13:07;8.40;;;4.17;;
74920;SDS011;63483;47.384;8.860;2023-07-09T08:15:32;5.33;;;3.50;;
74920;SDS011;63483;47.384;8.860;2023-07-09T08:17:59;6.22;;;3.65;;
74920;SDS011;63483;47.384;8.860;2023-07-09T08:20:24;6.10;;;3.23;;
74920;SDS011;63483;47.384;8.860;2023-07-09T08:22:49;9.03;;;3.87;;
74920;SDS011;63483;47.384;8.860;2023-07-09T08:25:15;9.95;;;3.47;;
74920;SDS011;63483;47.384;8.860;2023-07-09T08:27:40;6.13;;;3.77;;
74920;SDS011;63483;47.384;8.860;2023-07-09T08:30:06;6.33;;;3.43;;
74920;SDS011;63483;47.384;8.860;2023-07-09T08:32:32;5.85;;;3.80;;
74920;SDS011;63483;47.384;8.860;2023-07-09T08:34:57;6.23;;;3.60;;
74920;SDS011;63483;47.384;8.860;2023-07-09T08:37:22;7.07;;;3.63;;
74920;SDS011;63483;47.384;8.860;2023-07-09T08:39:48;7.10;;;3.50;;
74920;SDS011;63483;47.384;8.860;2023-07-09T08:42:47;7.33;;;3.40;;
74920;SDS011;63483;47.384;8.860;2023-07-09T08:45:16;6.13;;;3.40;;
74920;SDS011;63483;47.384;8.860;2023-07-09T08:50:18;10.60;;;4.00;;
74920;SDS011;63483;47.384;8.860;2023-07-09T08:52:47;25.88;;;4.57;;
74920;SDS011;63483;47.384;8.860;2023-07-09T08:55:16;6.93;;;3.43;;
74920;SDS011;63483;47.384;8.860;2023-07-09T08:57:45;5.57;;;3.33;;
74920;SDS011;63483;47.384;8.860;2023-07-09T09:00:27;5.03;;;3.72;;
74920;SDS011;63483;47.384;8.860;2023-07-09T09:02:58;10.52;;;4.28;;
74920;SDS011;63483;47.384;8.860;2023-07-09T09:05:25;8.45;;;3.65;;
74920;SDS011;63483;47.384;8.860;2023-07-09T09:07:55;7.13;;;3.80;;
74920;SDS011;63483;47.384;8.860;2023-07-09T09:10:40;5.03;;;3.20;;
74920;SDS011;63483;47.384;8.860;2023-07-09T09:13:10;9.43;;;3.80;;
74920;SDS011;63483;47.384;8.860;2023-07-09T09:15:39;5.63;;;3.78;;
74920;SDS011;63483;47.384;8.860;2023-07-09T09:20:47;13.23;;;3.80;;
74920;SDS011;63483;47.384;8.860;2023-07-09T09:23:18;6.18;;;4.00;;
74920;SDS011;63483;47.384;8.860;2023-07-09T09:25:45;9.30;;;3.92;;
74920;SDS011;63483;47.384;8.860;2023-07-09T09:28:16;6.53;;;3.67;;
74920;SDS011;63483;47.384;8.860;2023-07-09T09:30:41;7.20;;;3.40;;
74920;SDS011;63483;47.384;8.860;2023-07-09T09:33:07;4.90;;;3.50;;
74920;SDS011;63483;47.384;8.860;2023-07-09T09:35:38;5.88;;;3.53;;
74920;SDS011;63483;47.384;8.860;2023-07-09T09:38:09;6.63;;;3.43;;
74920;SDS011;63483;47.384;8.860;2023-07-09T09:40:41;7.80;;;3.50;;
74920;SDS011;63483;47.384;8.860;2023-07-09T09:43:11;8.00;;;3.92;;
74920;SDS011;63483;47.384;8.860;2023-07-09T09:45:45;7.27;;;4.03;;
74920;SDS011;63483;47.384;8.860;2023-07-09T09:48:19;7.57;;;4.07;;
74920;SDS011;63483;47.384;8.860;2023-07-09T09:50:52;7.28;;;3.58;;
74920;SDS011;63483;47.384;8.860;2023-07-09T09:53:19;5.17;;;3.37;;
74920;SDS011;63483;47.384;8.860;2023-07-09T09:55:47;5.07;;;3.22;;
74920;SDS011;63483;47.384;8.860;2023-07-09T09:58:15;9.98;;;4.03;;
74920;SDS011;63483;47.384;8.860;2023-07-09T10:00:46;5.47;;;3.22;;
74920;SDS011;63483;47.384;8.860;2023-07-09T10:03:14;6.18;;;3.80;;
74920;SDS011;63483;47.384;8.860;2023-07-09T10:05:56;5.30;;;3.37;;
74920;SDS011;63483;47.384;8.860;2023-07-09T10:08:31;5.82;;;3.28;;
74920;SDS011;63483;47.384;8.860;2023-07-09T10:11:30;5.70;;;2.60;;
74920;SDS011;63483;47.384;8.860;2023-07-09T10:14:09;4.57;;;3.03;;
74920;SDS011;63483;47.384;8.860;2023-07-09T10:16:52;5.68;;;3.10;;
74920;SDS011;63483;47.384;8.860;2023-07-09T10:22:55;7.35;;;3.00;;
74920;SDS011;63483;47.384;8.860;2023-07-09T10:28:16;7.03;;;3.47;;
74920;SDS011;63483;47.384;8.860;2023-07-09T10:30:49;6.03;;;3.38;;
74920;SDS011;63483;47.384;8.860;2023-07-09T10:33:46;5.90;;;3.03;;
74920;SDS011;63483;47.384;8.860;2023-07-09T10:36:33;5.45;;;2.92;;
74920;SDS011;63483;47.384;8.860;2023-07-09T10:39:14;6.13;;;2.90;;
74920;SDS011;63483;47.384;8.860;2023-07-09T10:41:48;5.43;;;3.13;;
74920;SDS011;63483;47.384;8.860;2023-07-09T10:46:45;4.85;;;2.95;;
74920;SDS011;63483;47.384;8.860;2023-07-09T10:49:17;6.63;;;3.67;;
74920;SDS011;63483;47.384;8.860;2023-07-09T10:51:44;5.30;;;3.20;;
74920;SDS011;63483;47.384;8.860;2023-07-09T10:54:28;5.10;;;2.65;;
74920;SDS011;63483;47.384;8.860;2023-07-09T10:57:18;6.13;;;2.90;;
74920;SDS011;63483;47.384;8.860;2023-07-09T10:59:52;6.53;;;2.75;;
74920;SDS011;63483;47.384;8.860;2023-07-09T11:02:24;5.40;;;3.08;;
74920;SDS011;63483;47.384;8.860;2023-07-09T11:04:56;6.75;;;3.03;;
74920;SDS011;63483;47.384;8.860;2023-07-09T11:07:31;5.93;;;3.40;;
74920;SDS011;63483;47.384;8.860;2023-07-09T11:09:59;5.33;;;3.10;;
74920;SDS011;63483;47.384;8.860;2023-07-09T11:12:30;4.13;;;2.80;;
74920;SDS011;63483;47.384;8.860;2023-07-09T11:15:21;8.50;;;3.28;;
74920;SDS011;63483;47.384;8.860;2023-07-09T11:17:49;4.53;;;3.05;;
74920;SDS011;63483;47.384;8.860;2023-07-09T11:22:53;4.78;;;3.28;;
74920;SDS011;63483;47.384;8.860;2023-07-09T11:25:31;4.88;;;2.78;;
74920;SDS011;63483;47.384;8.860;2023-07-09T11:28:07;4.37;;;3.10;;
74920;SDS011;63483;47.384;8.860;2023-07-09T11:30:32;5.77;;;2.67;;
74920;SDS011;63483;47.384;8.860;2023-07-09T11:33:19;6.30;;;3.13;;
74920;SDS011;63483;47.384;8.860;2023-07-09T11:36:14;5.15;;;3.15;;
74920;SDS011;63483;47.384;8.860;2023-07-09T11:38:44;7.72;;;3.05;;
74920;SDS011;63483;47.384;8.860;2023-07-09T11:44:16;5.77;;;2.90;;
74920;SDS011;63483;47.384;8.860;2023-07-09T11:56:09;4.85;;;2.70;;
74920;SDS011;63483;47.384;8.860;2023-07-09T11:58:34;6.47;;;2.80;;
74920;SDS011;63483;47.384;8.860;2023-07-09T12:01:00;5.28;;;2.42;;
74920;SDS011;63483;47.384;8.860;2023-07-09T12:03:30;5.47;;;2.83;;
74920;SDS011;63483;47.384;8.860;2023-07-09T12:06:05;6.13;;;3.00;;
74920;SDS011;63483;47.384;8.860;2023-07-09T12:08:40;6.25;;;3.95;;
74920;SDS011;63483;47.384;8.860;2023-07-09T12:11:17;7.32;;;3.40;;
74920;SDS011;63483;47.384;8.860;2023-07-09T12:13:44;6.60;;;3.03;;
74920;SDS011;63483;47.384;8.860;2023-07-09T12:16:18;6.43;;;2.77;;
74920;SDS011;63483;47.384;8.860;2023-07-09T12:18:45;5.60;;;2.90;;
74920;SDS011;63483;47.384;8.860;2023-07-09T12:21:11;6.20;;;3.00;;
74920;SDS011;63483;47.384;8.860;2023-07-09T12:23:37;5.33;;;2.90;;
74920;SDS011;63483;47.384;8.860;2023-07-09T12:26:05;6.07;;;3.22;;
74920;SDS011;63483;47.384;8.860;2023-07-09T12:28:31;5.90;;;3.43;;
74920;SDS011;63483;47.384;8.860;2023-07-09T12:30:57;6.63;;;3.22;;
74920;SDS011;63483;47.384;8.860;2023-07-09T12:33:24;4.00;;;2.63;;
74920;SDS011;63483;47.384;8.860;2023-07-09T12:35:54;3.75;;;2.70;;
74920;SDS011;63483;47.384;8.860;2023-07-09T12:38:26;5.28;;;3.17;;
74920;SDS011;63483;47.384;8.860;2023-07-09T12:40:53;6.13;;;3.00;;
74920;SDS011;63483;47.384;8.860;2023-07-09T12:43:30;4.47;;;2.88;;
74920;SDS011;63483;47.384;8.860;2023-07-09T12:45:58;5.50;;;3.10;;
74920;SDS011;63483;47.384;8.860;2023-07-09T12:48:26;4.50;;;2.63;;
74920;SDS011;63483;47.384;8.860;2023-07-09T12:50:54;6.22;;;2.80;;
74920;SDS011;63483;47.384;8.860;2023-07-09T12:53:22;5.53;;;2.67;;
74920;SDS011;63483;47.384;8.860;2023-07-09T12:55:51;5.85;;;3.63;;
74920;SDS011;63483;47.384;8.860;2023-07-09T12:58:20;5.78;;;2.83;;
74920;SDS011;63483;47.384;8.860;2023-07-09T13:00:52;5.10;;;2.67;;
74920;SDS011;63483;47.384;8.860;2023-07-09T13:03:20;5.40;;;2.88;;
74920;SDS011;63483;47.384;8.860;2023-07-09T13:05:57;4.37;;;2.40;;
74920;SDS011;63483;47.384;8.860;2023-07-09T13:08:29;7.63;;;2.85;;
74920;SDS011;63483;47.384;8.860;2023-07-09T13:10:56;3.90;;;2.63;;
74920;SDS011;63483;47.384;8.860;2023-07-09T13:13:22;3.70;;;2.60;;
74920;SDS011;63483;47.384;8.860;2023-07-09T13:15:54;5.15;;;2.40;;
74920;SDS011;63483;47.384;8.860;2023-07-09T13:18:22;6.03;;;2.33;;
74920;SDS011;63483;47.384;8.860;2023-07-09T13:20:48;4.63;;;2.65;;
74920;SDS011;63483;47.384;8.860;2023-07-09T13:23:15;4.17;;;2.30;;
74920;SDS011;63483;47.384;8.860;2023-07-09T13:25:52;5.38;;;2.58;;
74920;SDS011;63483;47.384;8.860;2023-07-09T13:28:19;5.67;;;2.20;;
74920;SDS011;63483;47.384;8.860;2023-07-09T13:30:46;5.18;;;2.50;;
74920;SDS011;63483;47.384;8.860;2023-07-09T13:33:22;3.88;;;2.53;;
74920;SDS011;63483;47.384;8.860;2023-07-09T13:35:48;4.22;;;2.50;;
74920;SDS011;63483;47.384;8.860;2023-07-09T13:38:15;5.13;;;2.40;;
74920;SDS011;63483;47.384;8.860;2023-07-09T13:40:46;4.87;;;2.57;;
74920;SDS011;63483;47.384;8.860;2023-07-09T13:43:15;5.72;;;2.53;;
74920;SDS011;63483;47.384;8.860;2023-07-09T13:45:44;5.45;;;2.28;;
74920;SDS011;63483;47.384;8.860;2023-07-09T13:48:12;5.90;;;2.30;;
74920;SDS011;63483;47.384;8.860;2023-07-09T13:50:40;5.53;;;3.13;;
74920;SDS011;63483;47.384;8.860;2023-07-09T13:53:09;6.40;;;2.80;;
74920;SDS011;63483;47.384;8.860;2023-07-09T13:55:38;6.40;;;3.10;;
74920;SDS011;63483;47.384;8.860;2023-07-09T13:58:03;4.67;;;2.40;;
74920;SDS011;63483;47.384;8.860;2023-07-09T14:00:29;5.45;;;2.67;;
74920;SDS011;63483;47.384;8.860;2023-07-09T14:02:54;4.07;;;2.60;;
74920;SDS011;63483;47.384;8.860;2023-07-09T14:05:20;5.33;;;2.60;;
74920;SDS011;63483;47.384;8.860;2023-07-09T14:07:46;5.93;;;2.60;;
74920;SDS011;63483;47.384;8.860;2023-07-09T14:10:14;7.37;;;2.40;;
74920;SDS011;63483;47.384;8.860;2023-07-09T14:12:42;6.00;;;2.55;;
74920;SDS011;63483;47.384;8.860;2023-07-09T14:15:12;5.03;;;2.60;;
74920;SDS011;63483;47.384;8.860;2023-07-09T14:17:40;5.18;;;2.60;;
74920;SDS011;63483;47.384;8.860;2023-07-09T14:20:08;6.43;;;2.70;;
74920;SDS011;63483;47.384;8.860;2023-07-09T14:22:36;6.28;;;2.88;;
74920;SDS011;63483;47.384;8.860;2023-07-09T14:25:03;5.43;;;2.40;;
74920;SDS011;63483;47.384;8.860;2023-07-09T14:27:30;9.25;;;2.58;;
74920;SDS011;63483;47.384;8.860;2023-07-09T14:29:55;10.10;;;3.07;;
74920;SDS011;63483;47.384;8.860;2023-07-09T14:32:36;7.50;;;3.10;;
74920;SDS011;63483;47.384;8.860;2023-07-09T14:35:13;4.57;;;2.77;;
74920;SDS011;63483;47.384;8.860;2023-07-09T14:37:42;6.22;;;2.80;;
74920;SDS011;63483;47.384;8.860;2023-07-09T14:40:08;6.80;;;2.70;;
74920;SDS011;63483;47.384;8.860;2023-07-09T14:42:34;30.70;;;3.50;;
74920;SDS011;63483;47.384;8.860;2023-07-09T14:45:01;5.88;;;2.67;;
74920;SDS011;63483;47.384;8.860;2023-07-09T14:47:27;4.93;;;2.37;;
74920;SDS011;63483;47.384;8.860;2023-07-09T14:49:53;4.90;;;2.03;;
74920;SDS011;63483;47.384;8.860;2023-07-09T14:52:19;5.40;;;2.40;;
74920;SDS011;63483;47.384;8.860;2023-07-09T14:54:49;4.10;;;2.25;;
74920;SDS011;63483;47.384;8.860;2023-07-09T14:57:24;5.65;;;2.83;;
74920;SDS011;63483;47.384;8.860;2023-07-09T14:59:51;3.88;;;2.30;;
74920;SDS011;63483;47.384;8.860;2023-07-09T15:02:38;4.73;;;2.60;;
74920;SDS011;63483;47.384;8.860;2023-07-09T15:05:06;4.22;;;2.20;;
74920;SDS011;63483;47.384;8.860;2023-07-09T15:07:38;7.22;;;2.90;;
74920;SDS011;63483;47.384;8.860;2023-07-09T15:10:03;5.40;;;2.33;;
74920;SDS011;63483;47.384;8.860;2023-07-09T15:12:34;5.95;;;2.20;;
74920;SDS011;63483;47.384;8.860;2023-07-09T15:17:50;6.03;;;2.20;;
74920;SDS011;63483;47.384;8.860;2023-07-09T15:20:16;4.77;;;2.20;;
74920;SDS011;63483;47.384;8.860;2023-07-09T15:22:44;3.97;;;2.22;;
74920;SDS011;63483;47.384;8.860;2023-07-09T15:25:21;4.07;;;2.30;;
74920;SDS011;63483;47.384;8.860;2023-07-09T15:27:48;8.45;;;2.47;;